createdAt,value
2023-04-15T00:01:24.261Z,56.03
2023-04-15T00:03:55.442Z,54.72
2023-04-15T00:06:22.863Z,54.72
2023-04-15T00:08:52.472Z,54.76
2023-04-15T00:11:20.314Z,54.58
2023-04-15T00:13:47.560Z,54.60
2023-04-15T00:16:14.836Z,54.53
2023-04-15T00:18:41.902Z,55.90
2023-04-15T00:21:09.723Z,55.12
2023-04-15T00:23:39.714Z,54.25
2023-04-15T00:26:10.061Z,54.14
2023-04-15T00:28:37.510Z,54.22
2023-04-15T00:31:04.565Z,54.42
2023-04-15T00:33:32.001Z,54.41
2023-04-15T00:36:00.561Z,54.34
2023-04-15T00:38:28.264Z,53.81
2023-04-15T00:40:56.571Z,54.09
2023-04-15T00:43:23.847Z,53.20
2023-04-15T00:45:53.841Z,53.47
2023-04-15T00:48:21.285Z,53.48
2023-04-15T00:50:52.115Z,53.63
2023-04-15T00:53:19.243Z,53.52
2023-04-15T00:55:46.346Z,53.70
2023-04-15T00:58:13.348Z,54.04
2023-04-15T01:00:43.557Z,53.55
2023-04-15T01:03:12.030Z,53.52
2023-04-15T01:05:39.468Z,53.48
2023-04-15T01:08:09.909Z,53.21
2023-04-15T01:10:38.026Z,53.45
2023-04-15T01:13:05.301Z,53.43
2023-04-15T01:15:33.586Z,53.64
2023-04-15T01:18:03.362Z,54.51
2023-04-15T01:20:34.685Z,53.48
2023-04-15T01:23:02.679Z,53.68
2023-04-15T01:25:34.485Z,53.90
2023-04-15T01:28:02.268Z,53.49
2023-04-15T01:30:30.137Z,54.51
2023-04-15T01:32:57.577Z,54.33
2023-04-15T01:35:25.109Z,53.81
2023-04-15T01:37:53.010Z,53.77
2023-04-15T01:40:20.802Z,53.99
2023-04-15T01:42:47.984Z,53.65
2023-04-15T01:45:15.749Z,53.56
2023-04-15T01:47:43.758Z,53.94
2023-04-15T01:50:11.384Z,53.63
2023-04-15T01:52:40.373Z,53.33
2023-04-15T01:55:08.670Z,53.43
2023-04-15T01:57:35.954Z,53.96
2023-04-15T02:00:04.869Z,53.91
2023-04-15T02:02:40.384Z,54.18
2023-04-15T02:05:11.159Z,53.81
2023-04-15T02:07:38.239Z,53.81
2023-04-15T02:10:05.677Z,54.16
2023-04-15T02:12:36.056Z,53.88
2023-04-15T02:15:03.104Z,53.70
2023-04-15T02:17:39.021Z,53.75
2023-04-15T02:20:08.818Z,53.91
2023-04-15T02:22:35.834Z,53.32
2023-04-15T02:25:02.834Z,54.90
2023-04-15T02:27:32.894Z,53.78
2023-04-15T02:30:02.983Z,53.92
2023-04-15T02:32:30.324Z,53.83
2023-04-15T02:34:57.300Z,53.85
2023-04-15T02:37:28.779Z,53.70
2023-04-15T02:40:00.723Z,54.10
2023-04-15T02:42:29.017Z,53.60
2023-04-15T02:44:56.569Z,54.21
2023-04-15T02:47:29.383Z,54.23
2023-04-15T02:49:58.670Z,54.35
2023-04-15T02:52:29.164Z,53.94
2023-04-15T02:55:00.712Z,54.18
2023-04-15T02:57:31.324Z,54.21
2023-04-15T03:00:06.497Z,54.24
2023-04-15T03:02:39.439Z,54.01
2023-04-15T03:05:07.524Z,54.40
2023-04-15T03:07:34.432Z,54.18
2023-04-15T03:10:02.988Z,54.92
2023-04-15T03:12:31.118Z,54.50
2023-04-15T03:14:58.820Z,54.42
2023-04-15T03:17:33.955Z,54.37
2023-04-15T03:20:03.969Z,54.50
2023-04-15T03:22:34.505Z,54.51
2023-04-15T03:25:02.754Z,54.38
2023-04-15T03:27:29.690Z,54.16
2023-04-15T03:30:00.313Z,54.09
2023-04-15T03:32:30.902Z,54.13
2023-04-15T03:34:58.071Z,54.41
2023-04-15T03:37:24.941Z,54.03
2023-04-15T03:39:51.904Z,54.07
2023-04-15T03:42:18.850Z,54.41
2023-04-15T03:44:45.972Z,55.00
2023-04-15T03:47:13.265Z,54.03
2023-04-15T03:49:40.239Z,54.36
2023-04-15T03:52:07.195Z,54.26
2023-04-15T03:54:34.145Z,54.23
2023-04-15T03:57:01.462Z,54.14
2023-04-15T03:59:28.478Z,54.30
2023-04-15T04:01:55.706Z,54.20
2023-04-15T04:04:22.901Z,54.24
2023-04-15T04:06:49.933Z,54.30
2023-04-15T04:09:17.017Z,54.54
2023-04-15T04:11:45.638Z,54.31
2023-04-15T04:14:12.538Z,54.47
2023-04-15T04:16:39.521Z,54.38
2023-04-15T04:19:06.452Z,55.05
2023-04-15T04:21:34.330Z,54.96
2023-04-15T04:24:01.446Z,54.69
2023-04-15T04:26:28.329Z,54.18
2023-04-15T04:28:55.480Z,54.13
2023-04-15T04:31:22.558Z,53.89
2023-04-15T04:33:49.540Z,53.84
2023-04-15T04:36:16.540Z,53.06
2023-04-15T04:38:43.481Z,52.71
2023-04-15T04:41:10.752Z,51.64
2023-04-15T04:43:37.637Z,51.38
2023-04-15T04:46:04.613Z,51.09
2023-04-15T04:48:31.713Z,51.05
2023-04-15T04:50:59.349Z,51.22
2023-04-15T04:53:26.520Z,51.06
2023-04-15T04:55:53.632Z,50.94
2023-04-15T04:58:20.792Z,50.97
2023-04-15T05:00:48.061Z,50.98
2023-04-15T05:03:15.247Z,50.71
2023-04-15T05:05:42.604Z,50.72
2023-04-15T05:08:09.595Z,50.91
2023-04-15T05:10:36.613Z,50.79
2023-04-15T05:13:03.646Z,50.63
2023-04-15T05:15:30.747Z,50.92
2023-04-15T05:17:57.802Z,50.61
2023-04-15T05:20:24.937Z,50.50
2023-04-15T05:22:51.937Z,50.66
2023-04-15T05:25:19.459Z,50.77
2023-04-15T05:27:46.514Z,50.58
2023-04-15T05:30:13.943Z,50.75
2023-04-15T05:32:41.016Z,50.66
2023-04-15T05:35:08.690Z,50.85
2023-04-15T05:37:35.662Z,50.54
2023-04-15T05:40:02.799Z,50.83
2023-04-15T05:42:29.816Z,50.88
2023-04-15T05:44:56.797Z,50.75
2023-04-15T05:47:23.963Z,51.05
2023-04-15T05:49:51.157Z,51.31
2023-04-15T05:52:18.217Z,51.38
2023-04-15T05:54:45.427Z,51.80
2023-04-15T05:57:12.908Z,51.19
2023-04-15T05:59:39.808Z,50.31
2023-04-15T06:02:07.688Z,48.73
2023-04-15T06:04:34.819Z,47.37
2023-04-15T06:07:01.908Z,46.15
2023-04-15T06:09:31.881Z,45.27
2023-04-15T06:11:59.326Z,43.26
2023-04-15T06:14:26.285Z,41.98
2023-04-15T06:16:53.227Z,41.77
2023-04-15T06:19:20.739Z,40.83
2023-04-15T06:21:47.736Z,39.74
2023-04-15T06:24:14.833Z,38.92
2023-04-15T06:26:41.771Z,38.54
2023-04-15T06:29:08.898Z,38.54
2023-04-15T06:31:36.044Z,38.36
2023-04-15T06:34:03.102Z,37.96
2023-04-15T06:36:30.129Z,36.65
2023-04-15T06:38:57.357Z,35.11
2023-04-15T06:41:24.746Z,35.79
2023-04-15T06:43:51.752Z,33.51
2023-04-15T06:46:19.058Z,33.37
2023-04-15T06:48:46.264Z,32.77
2023-04-15T06:51:13.415Z,32.13
2023-04-15T06:53:42.358Z,31.50
2023-04-15T06:56:09.835Z,30.75
2023-04-15T06:58:37.297Z,30.04
2023-04-15T07:01:04.618Z,29.82
2023-04-15T07:03:32.843Z,29.50
2023-04-15T07:06:00.123Z,28.36
2023-04-15T07:08:27.068Z,27.36
2023-04-15T07:10:54.563Z,27.56
2023-04-15T07:13:21.932Z,26.88
2023-04-15T07:15:48.873Z,25.58
2023-04-15T07:18:16.127Z,25.34
2023-04-15T07:20:43.957Z,25.06
2023-04-15T07:23:10.912Z,24.05
2023-04-15T07:25:37.962Z,24.41
2023-04-15T07:28:05.097Z,23.30
2023-04-15T07:30:32.094Z,23.20
2023-04-15T07:32:59.490Z,23.04
2023-04-15T07:35:26.709Z,22.33
2023-04-15T07:37:53.671Z,21.80
2023-04-15T07:40:20.887Z,21.37
2023-04-15T07:42:49.706Z,20.14
2023-04-15T07:45:17.031Z,21.15
2023-04-15T07:47:44.207Z,20.58
2023-04-15T07:50:14.855Z,20.34
2023-04-15T07:52:42.194Z,19.69
2023-04-15T07:55:09.839Z,19.36
2023-04-15T07:57:37.752Z,18.84
2023-04-15T08:00:09.005Z,19.16
2023-04-15T08:02:43.121Z,18.54
2023-04-15T08:05:11.444Z,18.98
2023-04-15T08:07:38.614Z,19.03
2023-04-15T08:10:06.701Z,18.25
2023-04-15T08:12:33.755Z,18.46
2023-04-15T08:15:02.159Z,18.37
2023-04-15T08:17:29.204Z,17.71
2023-04-15T08:19:56.222Z,18.15
2023-04-15T08:22:24.078Z,17.58
2023-04-15T08:24:51.535Z,18.09
2023-04-15T08:27:19.056Z,16.31
2023-04-15T08:29:46.057Z,16.50
2023-04-15T08:32:13.128Z,16.44
2023-04-15T08:34:40.325Z,16.66
2023-04-15T08:37:07.268Z,16.23
2023-04-15T08:39:37.155Z,16.18
2023-04-15T08:42:08.321Z,14.99
2023-04-15T08:44:39.169Z,15.46
2023-04-15T08:47:08.828Z,14.90
2023-04-15T08:49:43.167Z,14.13
2023-04-15T08:52:10.670Z,14.81
2023-04-15T08:54:38.917Z,14.51
2023-04-15T08:57:06.904Z,13.85
2023-04-15T08:59:33.797Z,14.64
2023-04-15T09:02:01.406Z,13.13
2023-04-15T09:04:29.064Z,13.34
2023-04-15T09:06:57.381Z,13.44
2023-04-15T09:09:24.417Z,13.58
2023-04-15T09:11:52.264Z,13.38
2023-04-15T09:14:19.215Z,13.90
2023-04-15T09:16:59.997Z,13.83
2023-04-15T09:19:27.280Z,14.57
2023-04-15T09:21:58.942Z,13.90
2023-04-15T09:24:33.912Z,14.19
2023-04-15T09:27:01.211Z,14.15
2023-04-15T09:29:28.159Z,14.02
2023-04-15T09:31:55.513Z,14.06
2023-04-15T09:34:36.317Z,13.82
2023-04-15T09:37:04.244Z,13.53
2023-04-15T09:39:52.696Z,13.35
2023-04-15T09:42:27.020Z,14.42
2023-04-15T09:44:54.204Z,14.16
2023-04-15T09:47:29.142Z,13.69
2023-04-15T09:49:57.896Z,14.50
2023-04-15T09:52:24.868Z,14.28
2023-04-15T09:54:55.528Z,14.49
2023-04-15T09:57:23.763Z,15.48
2023-04-15T09:59:53.558Z,15.13
2023-04-15T10:02:23.654Z,16.08
2023-04-15T10:04:52.773Z,16.22
2023-04-15T10:07:22.586Z,17.24
2023-04-15T10:09:50.147Z,17.59
2023-04-15T10:12:20.400Z,18.25
2023-04-15T10:15:00.184Z,18.94
2023-04-15T10:17:33.910Z,19.63
2023-04-15T10:20:05.493Z,19.88
2023-04-15T10:22:33.371Z,19.19
2023-04-15T10:25:01.290Z,20.22
2023-04-15T10:27:29.141Z,20.29
2023-04-15T10:29:57.335Z,20.44
2023-04-15T10:32:25.907Z,20.30
2023-04-15T10:34:54.724Z,21.14
2023-04-15T10:37:33.324Z,23.13
2023-04-15T10:40:00.237Z,26.03
2023-04-15T10:42:35.149Z,27.57
2023-04-15T10:45:02.133Z,27.76
2023-04-15T10:47:29.177Z,27.80
2023-04-15T10:50:01.251Z,27.87
2023-04-15T10:52:29.548Z,28.25
2023-04-15T10:55:16.065Z,28.80
2023-04-15T10:57:43.871Z,28.74
2023-04-15T11:00:11.635Z,29.02
2023-04-15T11:02:45.378Z,29.33
2023-04-15T11:05:16.845Z,30.67
2023-04-15T11:07:49.538Z,30.70
2023-04-15T11:10:26.013Z,31.52
2023-04-15T11:13:00.045Z,31.80
2023-04-15T11:15:45.915Z,32.42
2023-04-15T11:18:14.237Z,31.04
2023-04-15T11:20:45.657Z,30.20
2023-04-15T11:23:14.801Z,31.61
2023-04-15T11:25:44.092Z,30.88
2023-04-15T11:28:12.738Z,30.77
2023-04-15T11:30:40.963Z,30.25
2023-04-15T11:33:10.901Z,30.71
2023-04-15T11:35:38.561Z,30.44
2023-04-15T11:38:08.911Z,32.61
2023-04-15T11:40:36.316Z,34.32
2023-04-15T11:43:20.398Z,35.60
2023-04-15T11:45:57.578Z,36.70
2023-04-15T11:48:29.546Z,34.64
2023-04-15T11:51:04.938Z,34.07
2023-04-15T11:53:48.146Z,34.23
2023-04-15T11:56:23.116Z,33.49
2023-04-15T11:58:58.721Z,33.76
2023-04-15T12:01:52.575Z,34.75
2023-04-15T12:04:25.247Z,35.66
2023-04-15T12:06:53.227Z,35.80
2023-04-15T12:09:21.315Z,37.10
2023-04-15T12:11:53.990Z,37.70
2023-04-15T12:14:34.187Z,37.89
2023-04-15T12:17:06.289Z,37.10
2023-04-15T12:19:45.647Z,38.13
2023-04-15T12:22:15.997Z,37.89
2023-04-15T12:24:47.119Z,39.20
2023-04-15T12:27:16.112Z,38.91
2023-04-15T12:29:44.084Z,39.04
2023-04-15T12:32:12.909Z,39.59
2023-04-15T12:34:40.847Z,40.15
2023-04-15T12:37:10.974Z,41.26
2023-04-15T12:39:44.106Z,39.99
2023-04-15T12:42:12.275Z,40.38
2023-04-15T12:44:40.453Z,40.04
2023-04-15T12:47:08.835Z,39.21
2023-04-15T12:49:35.792Z,38.89
2023-04-15T12:52:03.927Z,39.66
2023-04-15T12:54:31.937Z,40.15
2023-04-15T12:57:00.042Z,39.95
2023-04-15T12:59:27.052Z,38.41
2023-04-15T13:01:54.973Z,37.07
2023-04-15T13:04:22.490Z,38.14
2023-04-15T13:06:49.981Z,39.07
2023-04-15T13:09:16.990Z,38.27
2023-04-15T13:11:44.233Z,39.07
2023-04-15T13:14:13.920Z,39.73
2023-04-15T13:16:47.662Z,41.68
2023-04-15T13:19:14.950Z,41.71
2023-04-15T13:21:41.829Z,42.09
2023-04-15T13:24:10.295Z,43.08
2023-04-15T13:26:37.978Z,43.25
2023-04-15T13:29:05.025Z,44.00
2023-04-15T13:31:32.222Z,44.06
2023-04-15T13:33:59.304Z,44.37
2023-04-15T13:36:27.379Z,45.61
2023-04-15T13:38:54.657Z,47.19
2023-04-15T13:41:22.063Z,48.38
2023-04-15T13:43:49.019Z,48.09
2023-04-15T13:46:16.185Z,48.48
2023-04-15T13:48:43.321Z,49.11
2023-04-15T13:51:10.496Z,49.83
2023-04-15T13:53:38.428Z,49.92
2023-04-15T13:56:10.157Z,52.02
2023-04-15T13:58:37.869Z,54.06
2023-04-15T14:01:06.935Z,54.14
2023-04-15T14:03:38.314Z,55.29
2023-04-15T14:06:06.514Z,54.78
2023-04-15T14:08:33.861Z,55.76
2023-04-15T14:11:01.055Z,56.48
2023-04-15T14:13:28.077Z,58.80
2023-04-15T14:15:55.561Z,60.10
2023-04-15T14:18:22.655Z,61.02
2023-04-15T14:20:49.928Z,60.53
2023-04-15T14:23:16.925Z,60.95
2023-04-15T14:25:45.518Z,62.11
2023-04-15T14:28:13.833Z,62.54
2023-04-15T14:30:40.964Z,65.20
2023-04-15T14:33:08.006Z,65.02
2023-04-15T14:35:37.083Z,66.23
2023-04-15T14:38:04.204Z,66.32
2023-04-15T14:40:31.355Z,65.79
2023-04-15T14:42:58.305Z,65.95
2023-04-15T14:45:25.553Z,66.46
2023-04-15T14:47:53.408Z,66.13
2023-04-15T14:50:20.491Z,66.82
2023-04-15T14:52:47.619Z,67.59
2023-04-15T14:55:14.639Z,67.96
2023-04-15T14:57:42.880Z,67.20
2023-04-15T15:00:13.769Z,66.23
2023-04-15T15:02:43.750Z,64.07
2023-04-15T15:05:12.172Z,64.75
2023-04-15T15:07:41.121Z,63.89
2023-04-15T15:10:08.559Z,62.37
2023-04-15T15:12:35.891Z,63.09
2023-04-15T15:15:12.237Z,62.77
2023-04-15T15:17:39.818Z,63.62
2023-04-15T15:20:09.642Z,62.91
2023-04-15T15:22:36.606Z,62.11
2023-04-15T15:25:03.747Z,62.11
2023-04-15T15:27:30.753Z,62.26
2023-04-15T15:29:58.639Z,61.92
2023-04-15T15:32:25.921Z,61.83
2023-04-15T15:34:53.443Z,62.42
2023-04-15T15:37:20.449Z,62.64
2023-04-15T15:39:48.279Z,63.61
2023-04-15T15:42:15.516Z,63.20
2023-04-15T15:44:42.519Z,62.95
2023-04-15T15:47:09.576Z,62.52
2023-04-15T15:49:36.645Z,62.29
2023-04-15T15:52:03.611Z,61.70
2023-04-15T15:54:30.621Z,61.98
2023-04-15T15:56:57.684Z,61.90
2023-04-15T15:59:25.662Z,61.44
2023-04-15T16:01:52.871Z,61.03
2023-04-15T16:04:20.188Z,61.05
2023-04-15T16:06:47.494Z,60.80
2023-04-15T16:09:14.943Z,61.25
2023-04-15T16:11:41.959Z,60.95
2023-04-15T16:14:08.919Z,61.71
2023-04-15T16:16:36.039Z,62.34
2023-04-15T16:19:03.156Z,62.08
2023-04-15T16:21:31.285Z,62.29
2023-04-15T16:23:58.288Z,61.73
2023-04-15T16:26:25.262Z,62.38
2023-04-15T16:28:52.173Z,62.02
2023-04-15T16:31:19.070Z,62.26
2023-04-15T16:33:46.263Z,62.97
2023-04-15T16:36:13.247Z,61.38
2023-04-15T16:38:40.202Z,62.64
2023-04-15T16:41:07.275Z,61.23
2023-04-15T16:43:34.166Z,60.50
2023-04-15T16:46:01.354Z,60.08
2023-04-15T16:48:28.423Z,60.20
2023-04-15T16:50:55.432Z,61.29
2023-04-15T16:53:22.383Z,60.80
2023-04-15T16:55:49.359Z,60.06
2023-04-15T16:58:16.434Z,59.51
2023-04-15T17:00:43.486Z,58.90
2023-04-15T17:03:10.840Z,58.86
2023-04-15T17:05:38.258Z,58.26
2023-04-15T17:08:05.893Z,58.38
2023-04-15T17:10:32.855Z,57.89
2023-04-15T17:13:00.138Z,58.12
2023-04-15T17:15:27.301Z,58.44
2023-04-15T17:17:54.683Z,58.95
2023-04-15T17:20:21.771Z,57.75
2023-04-15T17:22:49.223Z,57.50
2023-04-15T17:25:16.199Z,57.37
2023-04-15T17:27:43.160Z,56.97
2023-04-15T17:30:10.861Z,56.94
2023-04-15T17:32:39.505Z,56.75
2023-04-15T17:35:07.395Z,56.65
2023-04-15T17:37:35.362Z,57.05
2023-04-15T17:40:02.467Z,57.00
2023-04-15T17:42:29.447Z,56.17
2023-04-15T17:44:56.433Z,56.31
2023-04-15T17:47:23.425Z,56.72
2023-04-15T17:49:50.576Z,56.17
2023-04-15T17:52:17.770Z,55.92
2023-04-15T17:54:46.208Z,55.97
2023-04-15T17:57:13.186Z,55.68
2023-04-15T17:59:44.108Z,55.67
2023-04-15T18:02:11.719Z,55.71
2023-04-15T18:04:39.624Z,55.28
2023-04-15T18:07:06.784Z,55.56
2023-04-15T18:09:33.745Z,55.28
2023-04-15T18:12:02.150Z,54.88
2023-04-15T18:14:34.583Z,54.97
2023-04-15T18:17:05.462Z,54.71
2023-04-15T18:19:32.727Z,54.83
2023-04-15T18:22:03.357Z,54.43
2023-04-15T18:24:30.473Z,54.74
2023-04-15T18:26:57.600Z,54.81
2023-04-15T18:29:25.457Z,54.05
2023-04-15T18:31:53.090Z,54.70
2023-04-15T18:34:20.292Z,54.93
2023-04-15T18:36:47.233Z,54.86
2023-04-15T18:39:14.541Z,54.37
2023-04-15T18:41:41.433Z,53.87
2023-04-15T18:44:08.488Z,54.49
2023-04-15T18:46:35.541Z,54.19
2023-04-15T18:49:02.645Z,54.72
2023-04-15T18:51:30.164Z,54.60
2023-04-15T18:53:57.188Z,53.72
2023-04-15T18:56:24.262Z,53.52
2023-04-15T18:59:08.948Z,53.58
2023-04-15T19:01:38.230Z,53.99
2023-04-15T19:04:05.424Z,53.44
2023-04-15T19:06:32.478Z,53.83
2023-04-15T19:08:59.514Z,54.24
2023-04-15T19:11:26.540Z,53.67
2023-04-15T19:13:53.724Z,53.52
2023-04-15T19:16:21.144Z,53.13
2023-04-15T19:18:48.181Z,52.72
2023-04-15T19:21:15.632Z,53.07
2023-04-15T19:23:43.348Z,53.06
2023-04-15T19:26:11.694Z,52.97
2023-04-15T19:28:38.689Z,53.18
2023-04-15T19:31:06.848Z,52.96
2023-04-15T19:33:33.918Z,52.81
2023-04-15T19:36:05.962Z,52.57
2023-04-15T19:38:37.591Z,52.66
2023-04-15T19:41:04.623Z,52.66
2023-04-15T19:43:32.964Z,52.43
2023-04-15T19:46:00.245Z,52.36
2023-04-15T19:48:27.354Z,52.54
2023-04-15T19:50:54.320Z,52.64
2023-04-15T19:53:21.233Z,52.36
2023-04-15T19:55:49.105Z,52.13
2023-04-15T19:58:16.261Z,52.09
2023-04-15T20:00:43.328Z,51.96
2023-04-15T20:03:10.859Z,52.15
2023-04-15T20:05:41.078Z,52.50
2023-04-15T20:08:08.343Z,52.23
2023-04-15T20:10:36.952Z,52.68
2023-04-15T20:13:04.213Z,52.50
2023-04-15T20:15:31.497Z,52.64
2023-04-15T20:17:58.528Z,52.78
2023-04-15T20:20:25.682Z,53.06
2023-04-15T20:22:53.247Z,52.79
2023-04-15T20:25:20.606Z,52.92
2023-04-15T20:27:47.530Z,53.09
2023-04-15T20:30:14.606Z,53.39
2023-04-15T20:32:41.944Z,53.50
2023-04-15T20:35:09.202Z,53.46
2023-04-15T20:37:40.708Z,53.60
2023-04-15T20:40:08.495Z,53.78
2023-04-15T20:42:35.563Z,53.18
2023-04-15T20:45:02.895Z,53.82
2023-04-15T20:47:30.375Z,53.22
2023-04-15T20:49:57.445Z,53.05
2023-04-15T20:52:24.407Z,53.20
2023-04-15T20:54:51.718Z,52.73
2023-04-15T20:57:20.356Z,52.72
2023-04-15T20:59:47.669Z,52.93
2023-04-15T21:02:14.760Z,53.32
2023-04-15T21:04:41.931Z,53.33
2023-04-15T21:07:10.211Z,53.20
2023-04-15T21:09:38.702Z,53.24
2023-04-15T21:12:05.639Z,53.26
2023-04-15T21:14:32.665Z,53.17
2023-04-15T21:16:59.717Z,53.32
2023-04-15T21:19:26.938Z,52.95
2023-04-15T21:21:53.944Z,53.08
2023-04-15T21:24:20.961Z,52.92
2023-04-15T21:26:47.894Z,53.05
2023-04-15T21:29:14.966Z,52.89
2023-04-15T21:31:42.182Z,53.34
2023-04-15T21:34:14.904Z,53.26
2023-04-15T21:36:44.719Z,53.13
2023-04-15T21:39:11.607Z,53.29
2023-04-15T21:41:38.573Z,53.16
2023-04-15T21:44:05.809Z,53.72
2023-04-15T21:46:35.517Z,53.24
2023-04-15T21:49:03.700Z,53.94
2023-04-15T21:51:31.757Z,53.77
2023-04-15T21:53:59.375Z,53.23
2023-04-15T21:56:26.650Z,52.87
2023-04-15T21:58:59.054Z,53.04
2023-04-15T22:01:27.104Z,53.11
2023-04-15T22:03:54.398Z,53.18
2023-04-15T22:06:21.875Z,53.07
2023-04-15T22:08:57.358Z,53.16
2023-04-15T22:11:28.639Z,53.22
2023-04-15T22:13:57.476Z,53.33
2023-04-15T22:16:27.978Z,53.65
2023-04-15T22:18:55.883Z,53.82
2023-04-15T22:21:23.427Z,53.17
2023-04-15T22:23:51.597Z,53.20
2023-04-15T22:26:18.852Z,53.72
2023-04-15T22:28:45.958Z,53.34
2023-04-15T22:31:14.354Z,53.11
2023-04-15T22:33:41.501Z,53.26
2023-04-15T22:36:08.630Z,53.51
2023-04-15T22:38:35.879Z,53.25
2023-04-15T22:41:02.798Z,53.44
2023-04-15T22:43:29.846Z,53.22
2023-04-15T22:45:56.917Z,52.91
2023-04-15T22:48:23.999Z,53.25
2023-04-15T22:50:51.045Z,52.88
2023-04-15T22:53:20.779Z,53.34
2023-04-15T22:55:48.859Z,53.00
2023-04-15T22:58:17.283Z,53.29
2023-04-15T23:00:44.980Z,54.05
2023-04-15T23:03:12.188Z,53.45
2023-04-15T23:05:41.382Z,54.33
2023-04-15T23:08:11.296Z,53.53
2023-04-15T23:10:40.188Z,53.73
2023-04-15T23:13:07.174Z,53.41
2023-04-15T23:15:34.076Z,53.05
2023-04-15T23:18:02.287Z,53.91
2023-04-15T23:20:29.312Z,53.74
2023-04-15T23:22:56.469Z,53.31
2023-04-15T23:25:23.536Z,53.45
2023-04-15T23:27:50.584Z,53.34
2023-04-15T23:30:17.466Z,53.71
2023-04-15T23:32:44.483Z,53.65
2023-04-15T23:35:11.420Z,53.61
2023-04-15T23:37:38.447Z,53.38
2023-04-15T23:40:06.043Z,54.00
2023-04-15T23:42:33.216Z,53.50
2023-04-15T23:45:00.165Z,53.43
2023-04-15T23:47:27.415Z,54.39
2023-04-15T23:49:54.417Z,53.74
2023-04-15T23:52:21.410Z,53.70
2023-04-15T23:54:48.433Z,54.08
2023-04-15T23:57:15.689Z,53.76
2023-04-15T23:59:45.637Z,54.02
